sensor_id;sensor_type;location;lat;lon;timestamp;pressure;altitude;pressure_sealevel;temperature;humidity
37852;BME280;23691;52.486;4.650;2024-03-22T00:00:10;102006.69;;;12.54;78.09
37852;BME280;23691;52.486;4.650;2024-03-22T00:02:39;101988.59;;;12.56;77.86
37852;BME280;23691;52.486;4.650;2024-03-22T00:05:05;101976.34;;;12.53;77.94
37852;BME280;23691;52.486;4.650;2024-03-22T00:07:31;101968.97;;;12.55;78.38
37852;BME280;23691;52.486;4.650;2024-03-22T00:09:57;101972.06;;;12.60;78.03
37852;BME280;23691;52.486;4.650;2024-03-22T00:12:23;101956.22;;;12.57;77.89
37852;BME280;23691;52.486;4.650;2024-03-22T00:14:48;101945.78;;;12.54;78.11
37852;BME280;23691;52.486;4.650;2024-03-22T00:17:16;101945.66;;;12.56;78.01
37852;BME280;23691;52.486;4.650;2024-03-22T00:19:44;101946.81;;;12.53;77.98
37852;BME280;23691;52.486;4.650;2024-03-22T00:22:09;101953.84;;;12.54;78.13
37852;BME280;23691;52.486;4.650;2024-03-22T00:24:41;101947.41;;;12.65;77.53
37852;BME280;23691;52.486;4.650;2024-03-22T00:27:06;101952.66;;;12.66;77.25
37852;BME280;23691;52.486;4.650;2024-03-22T00:29:32;101949.88;;;12.58;77.91
37852;BME280;23691;52.486;4.650;2024-03-22T00:31:57;101965.41;;;12.55;77.87
37852;BME280;23691;52.486;4.650;2024-03-22T00:34:23;101964.72;;;12.53;77.91
37852;BME280;23691;52.486;4.650;2024-03-22T00:36:48;101964.97;;;12.59;77.42
37852;BME280;23691;52.486;4.650;2024-03-22T00:39:14;101959.59;;;12.59;77.92
37852;BME280;23691;52.486;4.650;2024-03-22T00:41:39;101971.09;;;12.52;77.96
37852;BME280;23691;52.486;4.650;2024-03-22T00:44:08;101967.00;;;12.48;78.42
37852;BME280;23691;52.486;4.650;2024-03-22T00:46:33;101967.19;;;12.46;78.54
37852;BME280;23691;52.486;4.650;2024-03-22T00:49:06;101959.34;;;12.53;78.15
37852;BME280;23691;52.486;4.650;2024-03-22T00:51:32;101950.19;;;12.55;78.15
37852;BME280;23691;52.486;4.650;2024-03-22T00:54:00;101958.16;;;12.65;77.57
37852;BME280;23691;52.486;4.650;2024-03-22T00:56:25;101943.25;;;12.53;78.25
37852;BME280;23691;52.486;4.650;2024-03-22T00:58:51;101942.97;;;12.56;78.23
37852;BME280;23691;52.486;4.650;2024-03-22T01:01:17;101950.19;;;12.55;77.76
37852;BME280;23691;52.486;4.650;2024-03-22T01:03:42;101948.41;;;12.46;77.96
37852;BME280;23691;52.486;4.650;2024-03-22T01:06:08;101943.88;;;12.46;78.38
37852;BME280;23691;52.486;4.650;2024-03-22T01:08:33;101953.75;;;12.46;78.26
37852;BME280;23691;52.486;4.650;2024-03-22T01:10:59;101945.84;;;12.44;78.33
37852;BME280;23691;52.486;4.650;2024-03-22T01:13:24;101948.53;;;12.44;78.06
37852;BME280;23691;52.486;4.650;2024-03-22T01:15:50;101954.59;;;12.46;78.34
37852;BME280;23691;52.486;4.650;2024-03-22T01:18:15;101943.59;;;12.40;78.46
37852;BME280;23691;52.486;4.650;2024-03-22T01:20:41;101940.78;;;12.41;78.56
37852;BME280;23691;52.486;4.650;2024-03-22T01:23:07;101944.56;;;12.49;78.17
37852;BME280;23691;52.486;4.650;2024-03-22T01:25:33;101940.56;;;12.53;78.34
37852;BME280;23691;52.486;4.650;2024-03-22T01:27:58;101930.00;;;12.51;77.91
37852;BME280;23691;52.486;4.650;2024-03-22T01:30:24;101933.50;;;12.52;77.92
37852;BME280;23691;52.486;4.650;2024-03-22T01:32:56;101924.47;;;12.53;77.96
37852;BME280;23691;52.486;4.650;2024-03-22T01:35:23;101915.44;;;12.54;78.14
37852;BME280;23691;52.486;4.650;2024-03-22T01:37:48;101922.91;;;12.50;78.21
37852;BME280;23691;52.486;4.650;2024-03-22T01:40:13;101920.47;;;12.39;78.59
37852;BME280;23691;52.486;4.650;2024-03-22T01:42:39;101925.75;;;12.31;78.65
37852;BME280;23691;52.486;4.650;2024-03-22T01:45:05;101926.88;;;12.28;79.00
37852;BME280;23691;52.486;4.650;2024-03-22T01:47:31;101931.09;;;12.31;78.83
37852;BME280;23691;52.486;4.650;2024-03-22T01:49:57;101926.72;;;12.30;78.73
37852;BME280;23691;52.486;4.650;2024-03-22T01:52:23;101917.00;;;12.29;79.02
37852;BME280;23691;52.486;4.650;2024-03-22T01:54:49;101913.91;;;12.23;79.13
37852;BME280;23691;52.486;4.650;2024-03-22T01:57:15;101900.38;;;12.15;79.45
37852;BME280;23691;52.486;4.650;2024-03-22T01:59:41;101899.94;;;12.20;79.44
37852;BME280;23691;52.486;4.650;2024-03-22T02:02:06;101894.97;;;12.25;79.10
37852;BME280;23691;52.486;4.650;2024-03-22T02:04:32;101894.69;;;12.28;79.09
37852;BME280;23691;52.486;4.650;2024-03-22T02:06:58;101885.06;;;12.25;79.49
37852;BME280;23691;52.486;4.650;2024-03-22T02:09:26;101874.50;;;12.24;79.35
37852;BME280;23691;52.486;4.650;2024-03-22T02:11:51;101865.31;;;12.27;79.11
37852;BME280;23691;52.486;4.650;2024-03-22T02:14:19;101853.56;;;12.28;78.97
37852;BME280;23691;52.486;4.650;2024-03-22T02:16:45;101852.22;;;12.23;79.25
37852;BME280;23691;52.486;4.650;2024-03-22T02:19:10;101849.66;;;12.22;79.06
37852;BME280;23691;52.486;4.650;2024-03-22T02:21:38;101854.19;;;12.21;79.44
37852;BME280;23691;52.486;4.650;2024-03-22T02:24:04;101832.03;;;12.19;79.22
37852;BME280;23691;52.486;4.650;2024-03-22T02:26:29;101829.22;;;12.21;79.46
37852;BME280;23691;52.486;4.650;2024-03-22T02:28:55;101821.28;;;12.19;79.33
37852;BME280;23691;52.486;4.650;2024-03-22T02:31:20;101820.16;;;12.22;78.99
37852;BME280;23691;52.486;4.650;2024-03-22T02:33:46;101822.97;;;12.20;79.30
37852;BME280;23691;52.486;4.650;2024-03-22T02:36:12;101821.28;;;12.19;79.44
37852;BME280;23691;52.486;4.650;2024-03-22T02:38:37;101827.38;;;12.21;79.49
37852;BME280;23691;52.486;4.650;2024-03-22T02:41:03;101823.91;;;12.29;79.11
37852;BME280;23691;52.486;4.650;2024-03-22T02:43:28;101826.16;;;12.34;78.65
37852;BME280;23691;52.486;4.650;2024-03-22T02:45:56;101822.91;;;12.30;79.12
37852;BME280;23691;52.486;4.650;2024-03-22T02:48:22;101815.03;;;12.29;79.08
37852;BME280;23691;52.486;4.650;2024-03-22T02:50:47;101806.59;;;12.23;79.18
37852;BME280;23691;52.486;4.650;2024-03-22T02:53:13;101802.38;;;12.21;79.47
37852;BME280;23691;52.486;4.650;2024-03-22T02:55:39;101806.34;;;12.17;79.33
37852;BME280;23691;52.486;4.650;2024-03-22T02:58:06;101799.00;;;12.19;79.63
37852;BME280;23691;52.486;4.650;2024-03-22T03:00:35;101788.66;;;12.24;79.16
37852;BME280;23691;52.486;4.650;2024-03-22T03:03:01;101784.06;;;12.16;79.83
37852;BME280;23691;52.486;4.650;2024-03-22T03:05:26;101768.47;;;12.20;79.52
37852;BME280;23691;52.486;4.650;2024-03-22T03:07:51;101770.31;;;12.19;79.63
37852;BME280;23691;52.486;4.650;2024-03-22T03:10:17;101775.69;;;12.19;79.81
37852;BME280;23691;52.486;4.650;2024-03-22T03:12:45;101765.41;;;12.15;80.07
37852;BME280;23691;52.486;4.650;2024-03-22T03:15:10;101760.03;;;12.15;79.70
37852;BME280;23691;52.486;4.650;2024-03-22T03:17:38;101761.56;;;12.17;79.58
37852;BME280;23691;52.486;4.650;2024-03-22T03:20:06;101761.56;;;12.17;79.74
37852;BME280;23691;52.486;4.650;2024-03-22T03:22:34;101766.81;;;12.19;79.79
37852;BME280;23691;52.486;4.650;2024-03-22T03:25:00;101767.97;;;12.16;79.70
37852;BME280;23691;52.486;4.650;2024-03-22T03:27:26;101771.63;;;12.15;79.85
37852;BME280;23691;52.486;4.650;2024-03-22T03:29:51;101768.66;;;12.18;79.58
37852;BME280;23691;52.486;4.650;2024-03-22T03:32:17;101764.56;;;12.14;79.76
37852;BME280;23691;52.486;4.650;2024-03-22T03:34:42;101776.16;;;12.15;79.54
37852;BME280;23691;52.486;4.650;2024-03-22T03:37:10;101762.72;;;12.15;79.50
37852;BME280;23691;52.486;4.650;2024-03-22T03:39:36;101751.47;;;12.11;79.76
37852;BME280;23691;52.486;4.650;2024-03-22T03:42:01;101745.09;;;12.12;79.89
37852;BME280;23691;52.486;4.650;2024-03-22T03:44:28;101758.66;;;12.11;79.96
37852;BME280;23691;52.486;4.650;2024-03-22T03:46:53;101743.56;;;12.10;80.08
37852;BME280;23691;52.486;4.650;2024-03-22T03:49:19;101743.72;;;12.08;79.76
37852;BME280;23691;52.486;4.650;2024-03-22T03:51:46;101751.47;;;12.11;79.59
37852;BME280;23691;52.486;4.650;2024-03-22T03:54:12;101759.72;;;12.18;79.57
37852;BME280;23691;52.486;4.650;2024-03-22T03:56:37;101749.38;;;12.23;79.11
37852;BME280;23691;52.486;4.650;2024-03-22T03:59:12;101748.88;;;12.19;79.54
37852;BME280;23691;52.486;4.650;2024-03-22T04:01:37;101752.94;;;12.23;79.36
37852;BME280;23691;52.486;4.650;2024-03-22T04:04:03;101745.88;;;12.22;79.17
37852;BME280;23691;52.486;4.650;2024-03-22T04:06:29;101745.88;;;12.22;78.94
37852;BME280;23691;52.486;4.650;2024-03-22T04:08:54;101740.13;;;12.17;79.33
37852;BME280;23691;52.486;4.650;2024-03-22T04:11:20;101751.69;;;12.18;79.27
37852;BME280;23691;52.486;4.650;2024-03-22T04:13:45;101737.13;;;12.20;79.25
37852;BME280;23691;52.486;4.650;2024-03-22T04:16:12;101737.34;;;12.27;78.96
37852;BME280;23691;52.486;4.650;2024-03-22T04:18:38;101745.78;;;12.32;78.62
37852;BME280;23691;52.486;4.650;2024-03-22T04:21:04;101740.09;;;12.35;78.50
37852;BME280;23691;52.486;4.650;2024-03-22T04:23:29;101753.31;;;12.29;78.61
37852;BME280;23691;52.486;4.650;2024-03-22T04:25:59;101748.34;;;12.34;78.61
37852;BME280;23691;52.486;4.650;2024-03-22T04:28:25;101748.00;;;12.37;78.56
37852;BME280;23691;52.486;4.650;2024-03-22T04:31:09;101745.34;;;12.37;78.46
37852;BME280;23691;52.486;4.650;2024-03-22T04:33:36;101747.50;;;12.33;78.30
37852;BME280;23691;52.486;4.650;2024-03-22T04:36:02;101734.53;;;12.29;78.44
37852;BME280;23691;52.486;4.650;2024-03-22T04:38:28;101734.38;;;12.30;78.47
37852;BME280;23691;52.486;4.650;2024-03-22T04:40:54;101740.03;;;12.27;78.64
37852;BME280;23691;52.486;4.650;2024-03-22T04:43:20;101734.38;;;12.30;78.47
37852;BME280;23691;52.486;4.650;2024-03-22T04:45:47;101719.41;;;12.28;78.50
37852;BME280;23691;52.486;4.650;2024-03-22T04:48:14;101733.53;;;12.30;78.73
37852;BME280;23691;52.486;4.650;2024-03-22T04:50:40;101730.84;;;12.30;78.53
37852;BME280;23691;52.486;4.650;2024-03-22T04:53:08;101733.22;;;12.33;78.52
37852;BME280;23691;52.486;4.650;2024-03-22T04:55:33;101731.53;;;12.32;78.05
37852;BME280;23691;52.486;4.650;2024-03-22T04:57:59;101724.69;;;12.37;77.87
37852;BME280;23691;52.486;4.650;2024-03-22T05:00:26;101712.81;;;12.40;78.06
37852;BME280;23691;52.486;4.650;2024-03-22T05:02:52;101723.41;;;12.41;77.71
37852;BME280;23691;52.486;4.650;2024-03-22T05:05:17;101721.56;;;12.42;77.56
37852;BME280;23691;52.486;4.650;2024-03-22T05:07:43;101720.84;;;12.40;77.74
37852;BME280;23691;52.486;4.650;2024-03-22T05:10:08;101713.75;;;12.31;78.08
37852;BME280;23691;52.486;4.650;2024-03-22T05:12:35;101709.56;;;12.28;78.19
37852;BME280;23691;52.486;4.650;2024-03-22T05:15:01;101711.22;;;12.29;77.71
37852;BME280;23691;52.486;4.650;2024-03-22T05:17:26;101708.69;;;12.28;77.99
37852;BME280;23691;52.486;4.650;2024-03-22T05:19:54;101701.97;;;12.23;78.21
37852;BME280;23691;52.486;4.650;2024-03-22T05:22:22;101690.38;;;12.23;78.22
37852;BME280;23691;52.486;4.650;2024-03-22T05:24:48;101690.22;;;12.24;78.05
37852;BME280;23691;52.486;4.650;2024-03-22T05:27:13;101692.06;;;12.24;77.69
37852;BME280;23691;52.486;4.650;2024-03-22T05:29:38;101711.53;;;12.26;77.63
37852;BME280;23691;52.486;4.650;2024-03-22T05:32:04;101690.53;;;12.21;77.99
37852;BME280;23691;52.486;4.650;2024-03-22T05:34:30;101702.09;;;12.22;77.50
37852;BME280;23691;52.486;4.650;2024-03-22T05:36:55;101706.88;;;12.28;77.48
37852;BME280;23691;52.486;4.650;2024-03-22T05:39:21;101709.44;;;12.38;77.02
37852;BME280;23691;52.486;4.650;2024-03-22T05:41:46;101703.31;;;12.45;76.85
37852;BME280;23691;52.486;4.650;2024-03-22T05:44:11;101712.75;;;12.32;77.05
37852;BME280;23691;52.486;4.650;2024-03-22T05:46:42;101700.53;;;12.37;76.88
37852;BME280;23691;52.486;4.650;2024-03-22T05:49:07;101700.91;;;12.42;76.61
37852;BME280;23691;52.486;4.650;2024-03-22T05:51:33;101701.78;;;12.43;76.76
37852;BME280;23691;52.486;4.650;2024-03-22T05:54:23;101705.44;;;12.42;76.70
37852;BME280;23691;52.486;4.650;2024-03-22T05:57:46;101690.44;;;12.31;76.72
37852;BME280;23691;52.486;4.650;2024-03-22T06:01:29;101693.50;;;12.36;76.75
37852;BME280;23691;52.486;4.650;2024-03-22T06:04:24;101683.38;;;12.30;76.94
37852;BME280;23691;52.486;4.650;2024-03-22T06:07:31;101683.09;;;12.33;76.91
37852;BME280;23691;52.486;4.650;2024-03-22T06:10:43;101687.81;;;12.39;76.23
37852;BME280;23691;52.486;4.650;2024-03-22T06:17:30;101694.47;;;12.35;76.82
37852;BME280;23691;52.486;4.650;2024-03-22T06:20:21;101688.59;;;12.32;76.64
37852;BME280;23691;52.486;4.650;2024-03-22T06:26:38;101676.34;;;12.29;76.77
37852;BME280;23691;52.486;4.650;2024-03-22T06:29:16;101672.66;;;12.30;76.55
37852;BME280;23691;52.486;4.650;2024-03-22T06:31:42;101674.66;;;12.28;76.66
37852;BME280;23691;52.486;4.650;2024-03-22T06:34:08;101661.91;;;12.30;76.44
37852;BME280;23691;52.486;4.650;2024-03-22T06:36:37;101667.97;;;12.32;76.61
37852;BME280;23691;52.486;4.650;2024-03-22T06:39:03;101673.19;;;12.34;76.79
37852;BME280;23691;52.486;4.650;2024-03-22T06:41:32;101680.09;;;12.36;76.63
37852;BME280;23691;52.486;4.650;2024-03-22T06:43:57;101682.47;;;12.39;76.18
37852;BME280;23691;52.486;4.650;2024-03-22T06:46:22;101675.41;;;12.38;76.49
37852;BME280;23691;52.486;4.650;2024-03-22T06:48:48;101663.53;;;12.41;76.06
37852;BME280;23691;52.486;4.650;2024-03-22T06:51:13;101671.03;;;12.37;76.52
37852;BME280;23691;52.486;4.650;2024-03-22T06:53:39;101673.03;;;12.35;76.31
37852;BME280;23691;52.486;4.650;2024-03-22T06:56:04;101669.34;;;12.36;76.53
37852;BME280;23691;52.486;4.650;2024-03-22T06:58:30;101672.88;;;12.37;76.40
37852;BME280;23691;52.486;4.650;2024-03-22T07:00:55;101668.25;;;12.47;76.31
37852;BME280;23691;52.486;4.650;2024-03-22T07:03:21;101672.72;;;12.38;76.55
37852;BME280;23691;52.486;4.650;2024-03-22T07:05:49;101669.19;;;12.38;76.37
37852;BME280;23691;52.486;4.650;2024-03-22T07:08:15;101669.41;;;12.44;76.40
37852;BME280;23691;52.486;4.650;2024-03-22T07:10:40;101672.56;;;12.40;76.38
37852;BME280;23691;52.486;4.650;2024-03-22T07:13:06;101668.56;;;12.44;76.07
37852;BME280;23691;52.486;4.650;2024-03-22T07:15:31;101670.09;;;12.46;76.07
37852;BME280;23691;52.486;4.650;2024-03-22T07:17:58;101665.78;;;12.54;76.26
37852;BME280;23691;52.486;4.650;2024-03-22T07:20:24;101667.00;;;12.59;75.66
37852;BME280;23691;52.486;4.650;2024-03-22T07:22:49;101667.22;;;12.66;75.64
37852;BME280;23691;52.486;4.650;2024-03-22T07:25:14;101666.06;;;12.68;75.39
37852;BME280;23691;52.486;4.650;2024-03-22T07:27:40;101674.44;;;12.65;75.33
37852;BME280;23691;52.486;4.650;2024-03-22T07:30:06;101668.84;;;12.59;75.67
37852;BME280;23691;52.486;4.650;2024-03-22T07:32:34;101669.00;;;12.57;76.14
37852;BME280;23691;52.486;4.650;2024-03-22T07:35:02;101675.84;;;12.52;75.89
37852;BME280;23691;52.486;4.650;2024-03-22T07:37:28;101674.00;;;12.52;76.21
37852;BME280;23691;52.486;4.650;2024-03-22T07:39:53;101672.69;;;12.56;75.74
37852;BME280;23691;52.486;4.650;2024-03-22T07:42:22;101671.38;;;12.60;76.02
37852;BME280;23691;52.486;4.650;2024-03-22T07:44:49;101672.59;;;12.66;75.85
37852;BME280;23691;52.486;4.650;2024-03-22T07:47:14;101671.91;;;12.64;75.48
37852;BME280;23691;52.486;4.650;2024-03-22T07:49:42;101678.94;;;12.65;75.90
37852;BME280;23691;52.486;4.650;2024-03-22T07:52:11;101672.25;;;12.69;75.71
37852;BME280;23691;52.486;4.650;2024-03-22T07:54:38;101677.31;;;12.72;75.64
37852;BME280;23691;52.486;4.650;2024-03-22T07:57:07;101672.63;;;12.74;75.54
37852;BME280;23691;52.486;4.650;2024-03-22T07:59:32;101680.53;;;12.76;75.04
37852;BME280;23691;52.486;4.650;2024-03-22T08:01:58;101682.53;;;12.74;75.15
37852;BME280;23691;52.486;4.650;2024-03-22T08:04:23;101670.47;;;12.78;75.15
37852;BME280;23691;52.486;4.650;2024-03-22T08:06:50;101676.53;;;12.80;74.89
37852;BME280;23691;52.486;4.650;2024-03-22T08:09:15;101680.53;;;12.76;75.13
37852;BME280;23691;52.486;4.650;2024-03-22T08:11:41;101676.66;;;12.70;75.20
37852;BME280;23691;52.486;4.650;2024-03-22T08:14:08;101671.28;;;12.70;74.99
37852;BME280;23691;52.486;4.650;2024-03-22T08:16:37;101680.63;;;12.66;75.27
37852;BME280;23691;52.486;4.650;2024-03-22T08:19:02;101668.75;;;12.68;75.28
37852;BME280;23691;52.486;4.650;2024-03-22T08:21:28;101679.63;;;12.67;75.14
37852;BME280;23691;52.486;4.650;2024-03-22T08:23:53;101684.00;;;12.68;74.90
37852;BME280;23691;52.486;4.650;2024-03-22T08:26:21;101678.31;;;12.71;75.19
37852;BME280;23691;52.486;4.650;2024-03-22T08:28:47;101675.97;;;12.68;75.20
37852;BME280;23691;52.486;4.650;2024-03-22T08:31:14;101666.88;;;12.69;74.97
37852;BME280;23691;52.486;4.650;2024-03-22T08:33:39;101669.25;;;12.72;75.04
37852;BME280;23691;52.486;4.650;2024-03-22T08:36:05;101671.94;;;12.72;75.16
37852;BME280;23691;52.486;4.650;2024-03-22T08:38:30;101677.66;;;12.77;75.02
37852;BME280;23691;52.486;4.650;2024-03-22T08:40:56;101675.19;;;12.84;75.32
37852;BME280;23691;52.486;4.650;2024-03-22T08:43:21;101675.06;;;12.85;74.85
37852;BME280;23691;52.486;4.650;2024-03-22T08:45:48;101676.91;;;12.85;74.95
37852;BME280;23691;52.486;4.650;2024-03-22T08:48:13;101674.03;;;12.86;75.26
37852;BME280;23691;52.486;4.650;2024-03-22T08:50:38;101676.72;;;12.86;75.20
37852;BME280;23691;52.486;4.650;2024-03-22T08:53:03;101670.53;;;12.86;75.29
37852;BME280;23691;52.486;4.650;2024-03-22T08:55:29;101682.63;;;12.90;75.29
37852;BME280;23691;52.486;4.650;2024-03-22T08:57:55;101673.41;;;12.93;75.24
37852;BME280;23691;52.486;4.650;2024-03-22T09:00:21;101672.59;;;12.92;75.57
37852;BME280;23691;52.486;4.650;2024-03-22T09:02:46;101663.38;;;12.95;75.39
37852;BME280;23691;52.486;4.650;2024-03-22T09:05:12;101657.66;;;12.98;75.68
37852;BME280;23691;52.486;4.650;2024-03-22T09:07:37;101662.66;;;12.93;75.97
37852;BME280;23691;52.486;4.650;2024-03-22T09:10:03;101664.31;;;12.85;76.24
37852;BME280;23691;52.486;4.650;2024-03-22T09:12:29;101665.84;;;12.88;76.48
37852;BME280;23691;52.486;4.650;2024-03-22T09:15:21;101666.66;;;12.88;76.67
37852;BME280;23691;52.486;4.650;2024-03-22T09:17:51;101664.78;;;12.81;76.96
37852;BME280;23691;52.486;4.650;2024-03-22T09:20:23;101662.25;;;12.79;77.13
37852;BME280;23691;52.486;4.650;2024-03-22T09:23:00;101662.94;;;12.81;77.49
37852;BME280;23691;52.486;4.650;2024-03-22T09:25:34;101662.09;;;12.81;77.72
37852;BME280;23691;52.486;4.650;2024-03-22T09:28:04;101652.72;;;12.85;77.42
37852;BME280;23691;52.486;4.650;2024-03-22T09:30:31;101655.25;;;12.86;77.73
37852;BME280;23691;52.486;4.650;2024-03-22T09:32:59;101653.59;;;12.94;77.26
37852;BME280;23691;52.486;4.650;2024-03-22T09:38:39;101646.91;;;12.98;77.67
37852;BME280;23691;52.486;4.650;2024-03-22T09:41:07;101650.09;;;13.01;77.47
37852;BME280;23691;52.486;4.650;2024-03-22T09:43:38;101658.38;;;13.08;77.31
37852;BME280;23691;52.486;4.650;2024-03-22T09:46:05;101656.03;;;13.13;77.23
37852;BME280;23691;52.486;4.650;2024-03-22T09:48:32;101642.41;;;13.06;77.05
37852;BME280;23691;52.486;4.650;2024-03-22T09:50:58;101661.06;;;13.08;77.60
37852;BME280;23691;52.486;4.650;2024-03-22T09:53:25;101647.97;;;13.05;77.25
37852;BME280;23691;52.486;4.650;2024-03-22T09:55:52;101652.28;;;12.98;77.23
37852;BME280;23691;52.486;4.650;2024-03-22T09:58:18;101652.75;;;12.93;77.53
37852;BME280;23691;52.486;4.650;2024-03-22T10:00:44;101657.13;;;12.94;77.80
37852;BME280;23691;52.486;4.650;2024-03-22T10:03:10;101661.22;;;13.06;77.48
37852;BME280;23691;52.486;4.650;2024-03-22T10:05:40;101663.91;;;13.06;77.38
37852;BME280;23691;52.486;4.650;2024-03-22T10:08:14;101660.91;;;13.09;77.08
37852;BME280;23691;52.486;4.650;2024-03-22T10:10:41;101651.97;;;13.09;77.24
37852;BME280;23691;52.486;4.650;2024-03-22T10:13:06;101649.28;;;13.01;77.78
37852;BME280;23691;52.486;4.650;2024-03-22T10:15:32;101650.78;;;13.03;77.55
37852;BME280;23691;52.486;4.650;2024-03-22T10:17:57;101654.84;;;13.07;77.52
37852;BME280;23691;52.486;4.650;2024-03-22T10:20:23;101653.84;;;13.08;77.16
37852;BME280;23691;52.486;4.650;2024-03-22T10:22:55;101661.78;;;13.26;77.18
37852;BME280;23691;52.486;4.650;2024-03-22T10:25:21;101654.91;;;13.24;77.15
37852;BME280;23691;52.486;4.650;2024-03-22T10:27:47;101655.28;;;13.29;77.23
37852;BME280;23691;52.486;4.650;2024-03-22T10:30:15;101657.19;;;13.37;76.73
37852;BME280;23691;52.486;4.650;2024-03-22T10:32:42;101653.47;;;13.38;76.34
37852;BME280;23691;52.486;4.650;2024-03-22T10:35:08;101653.63;;;13.36;76.53
37852;BME280;23691;52.486;4.650;2024-03-22T10:37:36;101660.38;;;13.40;75.71
37852;BME280;23691;52.486;4.650;2024-03-22T10:40:02;101660.22;;;13.42;75.80
37852;BME280;23691;52.486;4.650;2024-03-22T10:42:38;101649.13;;;13.45;75.96
37852;BME280;23691;52.486;4.650;2024-03-22T10:45:09;101658.22;;;13.44;75.42
37852;BME280;23691;52.486;4.650;2024-03-22T10:47:35;101672.16;;;13.39;75.38
37852;BME280;23691;52.486;4.650;2024-03-22T10:50:06;101666.09;;;13.37;75.57
37852;BME280;23691;52.486;4.650;2024-03-22T10:52:50;101658.72;;;13.39;75.41
37852;BME280;23691;52.486;4.650;2024-03-22T10:55:38;101657.69;;;13.40;75.16
37852;BME280;23691;52.486;4.650;2024-03-22T10:58:04;101657.53;;;13.42;74.69
37852;BME280;23691;52.486;4.650;2024-03-22T11:00:31;101655.00;;;13.40;74.74
37852;BME280;23691;52.486;4.650;2024-03-22T11:02:57;101652.66;;;13.45;74.78
37852;BME280;23691;52.486;4.650;2024-03-22T11:05:23;101640.09;;;13.54;74.44
37852;BME280;23691;52.486;4.650;2024-03-22T11:07:59;101643.13;;;13.67;74.29
37852;BME280;23691;52.486;4.650;2024-03-22T11:10:34;101641.47;;;13.74;74.15
37852;BME280;23691;52.486;4.650;2024-03-22T11:13:07;101633.41;;;13.74;74.00
37852;BME280;23691;52.486;4.650;2024-03-22T11:15:33;101637.13;;;13.73;74.13
37852;BME280;23691;52.486;4.650;2024-03-22T11:18:00;101635.25;;;13.82;73.60
37852;BME280;23691;52.486;4.650;2024-03-22T11:20:26;101628.69;;;13.85;73.84
37852;BME280;23691;52.486;4.650;2024-03-22T11:22:52;101637.09;;;13.90;73.07
37852;BME280;23691;52.486;4.650;2024-03-22T11:25:18;101640.31;;;13.93;73.03
37852;BME280;23691;52.486;4.650;2024-03-22T11:27:46;101639.47;;;13.93;73.17
37852;BME280;23691;52.486;4.650;2024-03-22T11:30:12;101631.56;;;13.91;72.88
37852;BME280;23691;52.486;4.650;2024-03-22T11:32:39;101635.63;;;13.95;72.41
37852;BME280;23691;52.486;4.650;2024-03-22T11:35:10;101628.19;;;13.89;72.20
37852;BME280;23691;52.486;4.650;2024-03-22T11:37:38;101633.75;;;13.88;72.28
37852;BME280;23691;52.486;4.650;2024-03-22T11:40:23;101628.69;;;13.85;72.39
37852;BME280;23691;52.486;4.650;2024-03-22T11:42:52;101634.28;;;13.83;72.19
37852;BME280;23691;52.486;4.650;2024-03-22T11:45:19;101634.28;;;13.83;72.19
37852;BME280;23691;52.486;4.650;2024-03-22T11:47:45;101633.25;;;13.84;72.19
37852;BME280;23691;52.486;4.650;2024-03-22T11:50:16;101636.28;;;13.81;71.68
37852;BME280;23691;52.486;4.650;2024-03-22T11:52:42;101633.41;;;13.83;72.14
37852;BME280;23691;52.486;4.650;2024-03-22T11:55:09;101627.72;;;13.86;71.75
37852;BME280;23691;52.486;4.650;2024-03-22T11:57:36;101620.63;;;13.93;71.50
37852;BME280;23691;52.486;4.650;2024-03-22T12:00:03;101629.41;;;14.03;71.29
37852;BME280;23691;52.486;4.650;2024-03-22T12:02:32;101617.94;;;14.09;71.43
37852;BME280;23691;52.486;4.650;2024-03-22T12:05:05;101626.03;;;14.09;71.59
37852;BME280;23691;52.486;4.650;2024-03-22T12:07:34;101633.09;;;14.10;71.16
37852;BME280;23691;52.486;4.650;2024-03-22T12:09:59;101623.00;;;14.21;70.95
37852;BME280;23691;52.486;4.650;2024-03-22T12:12:24;101621.13;;;14.29;71.04
37852;BME280;23691;52.486;4.650;2024-03-22T12:14:50;101625.50;;;14.38;70.78
37852;BME280;23691;52.486;4.650;2024-03-22T12:17:16;101615.88;;;14.52;70.35
37852;BME280;23691;52.486;4.650;2024-03-22T12:19:42;101616.41;;;14.56;70.14
37852;BME280;23691;52.486;4.650;2024-03-22T12:22:07;101617.59;;;14.53;70.16
37852;BME280;23691;52.486;4.650;2024-03-22T12:24:32;101619.56;;;14.51;70.01
37852;BME280;23691;52.486;4.650;2024-03-22T12:26:58;101613.56;;;14.33;70.20
37852;BME280;23691;52.486;4.650;2024-03-22T12:29:23;101622.13;;;14.36;70.26
37852;BME280;23691;52.486;4.650;2024-03-22T12:31:49;101619.94;;;14.40;70.05
37852;BME280;23691;52.486;4.650;2024-03-22T12:34:15;101611.38;;;14.28;70.16
37852;BME280;23691;52.486;4.650;2024-03-22T12:36:42;101626.34;;;14.31;70.22
37852;BME280;23691;52.486;4.650;2024-03-22T12:39:07;101617.44;;;14.30;70.10
37852;BME280;23691;52.486;4.650;2024-03-22T12:41:33;101622.47;;;14.33;69.90
37852;BME280;23691;52.486;4.650;2024-03-22T12:43:59;101615.41;;;14.41;69.73
37852;BME280;23691;52.486;4.650;2024-03-22T12:46:28;101603.09;;;14.46;69.52
37852;BME280;23691;52.486;4.650;2024-03-22T12:48:55;101612.53;;;14.58;69.41
37852;BME280;23691;52.486;4.650;2024-03-22T12:51:23;101617.72;;;14.52;69.72
37852;BME280;23691;52.486;4.650;2024-03-22T12:53:49;101616.41;;;14.39;69.82
37852;BME280;23691;52.486;4.650;2024-03-22T12:56:14;101613.53;;;14.41;69.15
37852;BME280;23691;52.486;4.650;2024-03-22T12:58:40;101614.06;;;14.36;69.29
37852;BME280;23691;52.486;4.650;2024-03-22T13:01:05;101598.53;;;14.47;69.25
37852;BME280;23691;52.486;4.650;2024-03-22T13:03:32;101590.97;;;14.58;68.48